Time;durP1;ratioP1;P1;durP2;ratioP2;P2;SDS_P1;SDS_P2;PMS_P1;PMS_P2;Temp;Humidity;BMP_temperature;BMP_pressure;BME280_temperature;BME280_humidity;BME280_pressure;Samples;Min_cycle;Max_cycle;Signal;HPM_P1;HPM_P2
2023/12/27 00:02:01;;;;;;;0.50;0.10;;;9.40;99.90;;;;;;5035503;28;20541;-74
2023/12/27 00:04:29;;;;;;;0.50;0.10;;;9.40;99.90;;;;;;5037110;28;20495;-74
2023/12/27 00:06:57;;;;;;;0.50;0.10;;;9.50;99.90;;;;;;5046585;28;20529;-74
2023/12/27 00:09:25;;;;;;;0.50;0.10;;;9.50;99.90;;;;;;5025789;28;20461;-75
2023/12/27 00:11:54;;;;;;;0.50;0.10;;;9.50;99.90;;;;;;5036526;28;20479;-74
2023/12/27 00:14:22;;;;;;;0.50;0.10;;;9.50;99.90;;;;;;5035433;28;20445;-74
2023/12/27 00:16:50;;;;;;;0.50;0.10;;;9.50;99.90;;;;;;5037589;28;20485;-74
2023/12/27 00:19:18;;;;;;;0.50;0.10;;;9.50;99.90;;;;;;5042634;28;20444;-75
2023/12/27 00:21:46;;;;;;;0.50;0.10;;;9.50;99.90;;;;;;5034043;28;20434;-75
2023/12/27 00:24:14;;;;;;;0.50;0.10;;;9.50;99.90;;;;;;5029159;28;20452;-74
2023/12/27 00:26:42;;;;;;;0.50;0.10;;;9.50;99.90;;;;;;5032568;28;20473;-74
2023/12/27 00:29:11;;;;;;;0.50;0.10;;;9.60;99.90;;;;;;5028826;28;20502;-74
2023/12/27 00:31:39;;;;;;;0.50;0.10;;;9.50;99.90;;;;;;5034199;28;20482;-74
2023/12/27 00:34:07;;;;;;;0.50;0.10;;;9.50;99.90;;;;;;5034371;28;20449;-74
2023/12/27 00:36:35;;;;;;;0.50;0.10;;;;;;;;;;5042527;28;20455;-75
2023/12/27 00:39:04;;;;;;;0.50;0.10;;;9.40;99.90;;;;;;5031438;28;20450;-74
2023/12/27 00:41:32;;;;;;;0.50;0.10;;;9.40;99.90;;;;;;5021203;28;20439;-73
2023/12/27 00:44:00;;;;;;;0.50;0.10;;;9.40;99.90;;;;;;5026298;28;20485;-75
2023/12/27 00:46:29;;;;;;;0.60;0.40;;;9.40;99.90;;;;;;5006317;28;20503;-74
2023/12/27 00:48:57;;;;;;;0.50;0.10;;;9.30;99.90;;;;;;5019761;28;20482;-74
2023/12/27 00:51:25;;;;;;;0.50;0.10;;;9.30;99.90;;;;;;5019435;28;21021;-74
2023/12/27 00:53:53;;;;;;;0.50;0.10;;;;;;;;;;5020313;28;20476;-75
2023/12/27 00:56:21;;;;;;;0.50;0.10;;;9.40;99.90;;;;;;5018534;28;20488;-74
2023/12/27 00:58:49;;;;;;;0.50;0.10;;;;;;;;;;5010599;28;20478;-74
2023/12/27 01:01:17;;;;;;;1.10;1.10;;;9.40;99.90;;;;;;5011204;28;20494;-74
2023/12/27 01:03:47;;;;;;;0.50;0.10;;;9.40;99.90;;;;;;4997080;28;20517;-74
2023/12/27 01:06:15;;;;;;;0.50;0.10;;;9.40;99.90;;;;;;5005679;28;20489;-74
2023/12/27 01:08:43;;;;;;;0.50;0.10;;;9.30;99.90;;;;;;5017198;28;20828;-74
2023/12/27 01:11:11;;;;;;;0.50;0.10;;;9.30;99.90;;;;;;5009675;28;20490;-74
2023/12/27 01:13:39;;;;;;;0.50;0.10;;;9.30;99.90;;;;;;5022568;28;20825;-75
2023/12/27 01:16:07;;;;;;;0.50;0.10;;;9.40;99.90;;;;;;5013946;28;20465;-74
2023/12/27 01:18:35;;;;;;;0.50;0.10;;;9.40;99.90;;;;;;5014983;28;20461;-74
2023/12/27 01:21:04;;;;;;;0.50;0.10;;;9.40;99.90;;;;;;5014867;28;20450;-74
2023/12/27 01:23:33;;;;;;;0.50;0.10;;;9.40;99.90;;;;;;5015185;28;20445;-74
2023/12/27 01:26:01;;;;;;;0.50;0.10;;;9.40;99.90;;;;;;5012413;28;20457;-74
2023/12/27 01:28:29;;;;;;;0.50;0.10;;;9.40;99.90;;;;;;5010474;28;20458;-74
2023/12/27 01:30:56;;;;;;;0.50;0.10;;;9.40;99.90;;;;;;5011184;28;20480;-74
2023/12/27 01:33:24;;;;;;;0.50;0.10;;;9.50;99.90;;;;;;5022118;28;20450;-73
2023/12/27 01:35:52;;;;;;;0.50;0.10;;;9.40;99.90;;;;;;5013644;28;20465;-74
2023/12/27 01:38:22;;;;;;;0.50;0.10;;;9.40;99.90;;;;;;5006041;28;20444;-74
2023/12/27 01:40:50;;;;;;;0.63;0.57;;;9.30;99.90;;;;;;5014197;28;20450;-74
2023/12/27 01:43:18;;;;;;;0.50;0.10;;;9.20;99.90;;;;;;5014269;28;20442;-74
2023/12/27 01:45:48;;;;;;;0.50;0.10;;;9.20;99.90;;;;;;5002844;28;20523;-74
2023/12/27 01:48:16;;;;;;;0.50;0.10;;;9.10;99.90;;;;;;5006878;28;20539;-74
2023/12/27 01:50:44;;;;;;;0.50;0.10;;;9.20;99.90;;;;;;5017250;28;20440;-74
2023/12/27 01:53:13;;;;;;;0.50;0.10;;;9.20;99.90;;;;;;5012788;28;20491;-74
2023/12/27 01:55:42;;;;;;;0.50;0.10;;;9.20;99.90;;;;;;5009056;28;20566;-74
2023/12/27 01:58:11;;;;;;;0.50;0.10;;;9.10;99.90;;;;;;5016018;28;20547;-74
2023/12/27 02:00:42;;;;;;;0.50;0.10;;;9.10;99.90;;;;;;5007767;28;20449;-74
2023/12/27 02:03:11;;;;;;;0.50;0.10;;;9.10;99.90;;;;;;5010944;28;20453;-74
2023/12/27 02:05:40;;;;;;;0.50;0.10;;;9.10;99.90;;;;;;5008780;28;20461;-74
2023/12/27 02:08:11;;;;;;;0.50;0.10;;;9.10;99.90;;;;;;5005736;28;20481;-74
2023/12/27 02:10:39;;;;;;;0.50;0.10;;;9.10;99.90;;;;;;5004120;28;20538;-74
2023/12/27 02:13:08;;;;;;;0.50;0.10;;;9.20;99.90;;;;;;5004825;28;20572;-75
2023/12/27 02:15:36;;;;;;;0.50;0.10;;;9.10;99.90;;;;;;5003050;28;20534;-75
2023/12/27 02:18:06;;;;;;;0.50;0.10;;;9.10;99.90;;;;;;5002870;28;20536;-74
2023/12/27 02:20:35;;;;;;;0.50;0.10;;;9.00;99.90;;;;;;5003827;28;20952;-74
2023/12/27 02:23:08;;;;;;;0.50;0.10;;;9.10;99.90;;;;;;5005446;28;20495;-74
2023/12/27 02:25:38;;;;;;;0.50;0.10;;;9.00;99.90;;;;;;5002599;28;20497;-74
2023/12/27 02:28:06;;;;;;;0.50;0.10;;;9.00;99.90;;;;;;5007899;28;20463;-74
2023/12/27 02:30:36;;;;;;;0.50;0.10;;;8.90;99.90;;;;;;5012615;28;20445;-74
2023/12/27 02:33:05;;;;;;;0.50;0.10;;;;;;;;;;5007128;28;20488;-75
2023/12/27 02:35:33;;;;;;;0.70;0.20;;;8.90;99.90;;;;;;5001387;28;20542;-74
2023/12/27 02:38:01;;;;;;;0.50;0.10;;;8.90;99.90;;;;;;5005299;28;20532;-74
2023/12/27 02:40:29;;;;;;;0.50;0.10;;;8.90;99.90;;;;;;5008161;28;20454;-74
2023/12/27 02:42:59;;;;;;;0.50;0.10;;;9.00;99.90;;;;;;5014039;28;20446;-74
2023/12/27 02:45:27;;;;;;;0.60;0.20;;;8.90;99.90;;;;;;5006200;28;20472;-75
2023/12/27 02:47:54;;;;;;;0.50;0.10;;;8.80;99.90;;;;;;5003550;28;21036;-74
2023/12/27 02:50:23;;;;;;;0.50;0.10;;;8.80;99.90;;;;;;5024308;28;20447;-75
2023/12/27 02:52:51;;;;;;;0.50;0.10;;;8.80;99.90;;;;;;5020228;28;20473;-75
2023/12/27 02:55:19;;;;;;;0.50;0.10;;;12.50;99.90;;;;;;5014326;28;20929;-73
2023/12/27 02:57:46;;;;;;;0.50;0.20;;;8.90;99.90;;;;;;5039571;22;1102931;-71
2023/12/27 03:00:17;;;;;;;0.50;0.10;;;8.80;99.90;;;;;;5065229;28;20233;-71
2023/12/27 03:02:45;;;;;;;0.50;0.10;;;;;;;;;;5068232;28;20494;-71
2023/12/27 03:05:13;;;;;;;0.50;0.10;;;8.70;99.90;;;;;;5070550;28;20454;-72
2023/12/27 03:07:41;;;;;;;1.00;0.57;;;8.70;99.90;;;;;;5076115;28;20463;-72
2023/12/27 03:10:09;;;;;;;0.50;0.10;;;8.60;99.90;;;;;;5076066;28;20506;-71
2023/12/27 03:12:36;;;;;;;0.50;0.10;;;8.60;99.90;;;;;;5065053;28;20480;-72
2023/12/27 03:15:05;;;;;;;0.50;0.10;;;8.70;99.90;;;;;;5063866;28;20918;-72
2023/12/27 03:17:34;;;;;;;0.50;0.10;;;8.80;99.90;;;;;;5071151;28;20962;-72
2023/12/27 03:20:02;;;;;;;0.50;0.10;;;8.80;99.90;;;;;;5063456;28;20476;-72
2023/12/27 03:22:30;;;;;;;0.50;0.10;;;8.80;99.90;;;;;;5058995;28;20531;-71
2023/12/27 03:24:58;;;;;;;0.50;0.10;;;8.80;99.90;;;;;;5073771;28;20878;-71
2023/12/27 03:27:26;;;;;;;0.50;0.10;;;8.80;99.90;;;;;;5059854;28;20458;-72
2023/12/27 03:29:54;;;;;;;0.50;0.10;;;8.80;99.90;;;;;;5070737;28;20532;-72
2023/12/27 03:32:24;;;;;;;0.50;0.10;;;8.80;99.90;;;;;;5075045;28;20481;-72
2023/12/27 03:34:53;;;;;;;0.50;0.10;;;8.90;99.90;;;;;;5076625;28;20431;-72
2023/12/27 03:37:22;;;;;;;0.50;0.10;;;8.80;99.90;;;;;;5078218;28;20563;-72
2023/12/27 03:39:51;;;;;;;0.50;0.20;;;8.90;99.90;;;;;;5076155;28;20492;-71
2023/12/27 03:42:20;;;;;;;0.50;0.10;;;8.90;99.90;;;;;;5075189;28;20538;-71
2023/12/27 03:44:52;;;;;;;0.50;0.10;;;8.90;99.90;;;;;;5074616;28;20449;-71
2023/12/27 03:47:20;;;;;;;0.50;0.10;;;9.00;99.90;;;;;;5069539;28;20817;-71
2023/12/27 03:49:48;;;;;;;0.50;0.10;;;9.00;99.90;;;;;;5063378;28;20506;-72
2023/12/27 03:52:17;;;;;;;0.50;0.10;;;9.00;99.90;;;;;;5074378;28;20442;-72
2023/12/27 03:54:45;;;;;;;0.50;0.10;;;9.00;99.90;;;;;;5074944;28;20870;-72
2023/12/27 03:57:13;;;;;;;0.50;0.10;;;9.10;99.90;;;;;;5073907;28;20657;-71
2023/12/27 03:59:41;;;;;;;0.50;0.10;;;9.10;99.90;;;;;;5073962;28;20444;-72
2023/12/27 04:02:10;;;;;;;0.50;0.10;;;9.10;99.90;;;;;;5074517;28;20444;-72
2023/12/27 04:04:39;;;;;;;0.50;0.10;;;9.00;99.90;;;;;;5074234;28;20435;-72
2023/12/27 04:07:07;;;;;;;0.50;0.10;;;9.10;99.90;;;;;;5061275;28;20479;-72
2023/12/27 04:09:39;;;;;;;0.50;0.10;;;9.10;99.90;;;;;;5062183;28;20439;-71
2023/12/27 04:12:07;;;;;;;0.50;0.10;;;9.10;99.90;;;;;;5070103;28;20929;-72
2023/12/27 04:14:36;;;;;;;0.50;0.10;;;9.10;99.90;;;;;;5053544;28;21359;-71
2023/12/27 04:17:04;;;;;;;0.50;0.10;;;9.10;99.90;;;;;;5061351;28;20969;-71
2023/12/27 04:19:32;;;;;;;0.50;0.10;;;9.10;99.90;;;;;;5065709;28;20452;-72
2023/12/27 04:22:00;;;;;;;0.50;0.10;;;9.10;99.90;;;;;;5074112;28;20438;-72
2023/12/27 04:24:28;;;;;;;0.50;0.10;;;9.10;99.90;;;;;;5071328;28;20529;-71
2023/12/27 04:26:57;;;;;;;0.50;0.10;;;9.10;99.90;;;;;;5073601;28;20471;-72
2023/12/27 04:29:25;;;;;;;0.50;0.10;;;9.10;99.90;;;;;;5074230;28;20454;-72
2023/12/27 04:31:53;;;;;;;0.50;0.10;;;9.00;99.90;;;;;;5052924;28;20468;-71
2023/12/27 04:34:21;;;;;;;0.50;0.10;;;9.00;99.90;;;;;;5046804;28;20518;-71
2023/12/27 04:36:49;;;;;;;0.50;0.10;;;8.90;99.90;;;;;;5061538;28;20467;-72
2023/12/27 04:39:17;;;;;;;0.50;0.10;;;8.90;99.90;;;;;;5055029;28;20523;-71
2023/12/27 04:41:45;;;;;;;0.50;0.10;;;8.90;99.90;;;;;;5067543;28;20948;-71
2023/12/27 04:44:14;;;;;;;0.50;0.10;;;8.90;99.90;;;;;;5073639;28;20924;-71
2023/12/27 04:46:42;;;;;;;0.60;0.57;;;8.90;99.90;;;;;;5073177;28;20490;-71
2023/12/27 04:49:12;;;;;;;0.60;0.50;;;8.90;99.90;;;;;;5073281;28;20469;-72
2023/12/27 04:51:40;;;;;;;0.50;0.10;;;8.90;99.90;;;;;;5069528;28;20877;-70
2023/12/27 04:54:08;;;;;;;0.50;0.10;;;9.00;99.90;;;;;;5070261;28;20485;-71
2023/12/27 04:56:36;;;;;;;0.50;0.10;;;10.30;99.90;;;;;;5067346;28;20470;-71
2023/12/27 04:59:04;;;;;;;0.50;0.10;;;9.10;99.90;;;;;;5060964;28;20519;-72
2023/12/27 05:01:33;;;;;;;0.50;0.10;;;9.10;99.90;;;;;;5067198;28;20471;-75
2023/12/27 05:04:01;;;;;;;0.50;0.10;;;9.10;99.90;;;;;;5073671;28;20444;-73
2023/12/27 05:06:29;;;;;;;0.50;0.10;;;9.10;99.90;;;;;;5070725;28;20461;-73
2023/12/27 05:08:59;;;;;;;0.50;0.10;;;9.00;99.90;;;;;;5058708;28;20438;-72
2023/12/27 05:11:27;;;;;;;0.50;0.10;;;9.00;99.90;;;;;;5070230;28;20512;-72
2023/12/27 05:13:55;;;;;;;0.50;0.10;;;9.00;99.90;;;;;;5062736;28;20577;-71
2023/12/27 05:16:23;;;;;;;0.50;0.10;;;9.00;99.90;;;;;;5061219;28;20503;-71
2023/12/27 05:18:52;;;;;;;0.50;0.10;;;8.90;99.90;;;;;;5067064;28;20474;-73
2023/12/27 05:21:20;;;;;;;0.50;0.10;;;9.00;99.90;;;;;;5074199;28;20473;-73
2023/12/27 05:23:48;;;;;;;0.50;0.10;;;8.90;99.90;;;;;;5068062;28;20469;-73
2023/12/27 05:26:16;;;;;;;0.50;0.10;;;9.00;99.90;;;;;;5069576;28;20457;-72
2023/12/27 05:28:43;;;;;;;0.50;0.10;;;9.00;99.90;;;;;;5072885;28;20939;-73
2023/12/27 05:31:11;;;;;;;0.50;0.10;;;8.90;99.90;;;;;;5053955;28;20456;-72
2023/12/27 05:33:40;;;;;;;0.50;0.10;;;8.90;99.90;;;;;;5055819;28;20481;-72
2023/12/27 05:36:09;;;;;;;0.50;0.10;;;8.90;99.90;;;;;;5044796;28;20807;-73
2023/12/27 05:38:37;;;;;;;0.50;0.10;;;8.90;99.90;;;;;;5052872;28;20435;-72
2023/12/27 05:41:05;;;;;;;0.50;0.10;;;8.90;99.90;;;;;;5053022;28;20973;-72
2023/12/27 05:43:34;;;;;;;0.50;0.10;;;8.90;99.90;;;;;;5053043;28;20940;-73
2023/12/27 05:46:02;;;;;;;0.50;0.10;;;8.90;99.90;;;;;;5052760;28;20485;-72
2023/12/27 05:48:30;;;;;;;0.50;0.10;;;8.90;99.90;;;;;;5052878;28;20445;-72
2023/12/27 05:50:58;;;;;;;0.50;0.10;;;9.00;99.90;;;;;;5052566;28;20960;-72
2023/12/27 05:53:28;;;;;;;0.50;0.10;;;9.00;99.90;;;;;;5051971;28;20441;-73
2023/12/27 05:55:56;;;;;;;0.50;0.10;;;9.00;99.90;;;;;;5051203;28;20451;-73
2023/12/27 05:58:24;;;;;;;0.50;0.10;;;9.00;99.90;;;;;;5053200;28;20501;-73
2023/12/27 06:00:51;;;;;;;0.50;0.10;;;9.00;99.90;;;;;;5057941;28;20439;-73
2023/12/27 06:03:22;;;;;;;0.50;0.10;;;9.00;99.90;;;;;;5051808;28;20471;-73
2023/12/27 06:05:50;;;;;;;0.50;0.10;;;8.90;99.90;;;;;;5056862;28;20476;-73
2023/12/27 06:08:20;;;;;;;0.50;0.10;;;8.90;99.90;;;;;;5063836;28;20439;-73
2023/12/27 06:10:50;;;;;;;0.50;0.10;;;8.90;99.90;;;;;;5048770;28;20461;-72
2023/12/27 06:13:18;;;;;;;0.50;0.10;;;8.90;99.90;;;;;;5055528;28;20530;-73
2023/12/27 06:15:46;;;;;;;0.50;0.10;;;8.90;99.90;;;;;;5065155;28;20489;-73
2023/12/27 06:18:14;;;;;;;0.50;0.10;;;8.90;99.90;;;;;;5072248;28;20452;-74
2023/12/27 06:20:42;;;;;;;0.50;0.10;;;8.90;99.90;;;;;;5055365;28;20933;-72
2023/12/27 06:23:09;;;;;;;0.50;0.10;;;8.90;99.90;;;;;;5056919;28;20898;-72
2023/12/27 06:25:38;;;;;;;0.50;0.10;;;;;;;;;;5070389;28;20464;-72
2023/12/27 06:28:07;;;;;;;0.50;0.10;;;8.90;99.90;;;;;;5072993;28;20932;-72
2023/12/27 06:30:35;;;;;;;0.50;0.10;;;9.00;99.90;;;;;;5064433;28;20480;-73
2023/12/27 06:33:03;;;;;;;0.50;0.10;;;9.00;99.90;;;;;;5068658;28;20487;-72
2023/12/27 06:35:31;;;;;;;0.50;0.10;;;9.00;99.90;;;;;;5068997;28;20475;-73
2023/12/27 06:37:59;;;;;;;0.50;0.10;;;9.00;99.90;;;;;;5066386;28;20506;-73
2023/12/27 06:40:27;;;;;;;0.50;0.10;;;9.00;99.90;;;;;;5072013;28;20468;-73
2023/12/27 06:42:55;;;;;;;0.50;0.10;;;9.00;99.90;;;;;;5068730;28;20518;-73
2023/12/27 06:45:24;;;;;;;0.50;0.10;;;9.00;99.90;;;;;;5070852;28;20438;-72
2023/12/27 06:47:52;;;;;;;0.50;0.10;;;9.00;99.90;;;;;;5051027;28;20474;-72
2023/12/27 06:50:20;;;;;;;0.50;0.10;;;9.00;99.90;;;;;;5060729;28;20443;-73
2023/12/27 06:52:49;;;;;;;0.50;0.10;;;9.00;99.90;;;;;;5066599;28;20485;-71
2023/12/27 06:55:17;;;;;;;0.50;0.10;;;9.00;99.90;;;;;;5057091;28;20512;-73
2023/12/27 06:57:45;;;;;;;0.50;0.10;;;9.00;99.90;;;;;;5051730;28;20558;-74
2023/12/27 07:00:14;;;;;;;0.50;0.10;;;9.00;99.90;;;;;;5055282;28;20459;-73
2023/12/27 07:02:43;;;;;;;0.50;0.10;;;8.90;99.90;;;;;;5062126;28;20442;-73
2023/12/27 07:05:12;;;;;;;0.50;0.10;;;8.90;99.90;;;;;;5061665;28;20982;-72
2023/12/27 07:07:40;;;;;;;0.50;0.10;;;9.00;99.90;;;;;;5060319;28;20478;-73
2023/12/27 07:10:09;;;;;;;0.50;0.10;;;9.00;99.90;;;;;;5055138;28;20451;-73
2023/12/27 07:12:40;;;;;;;0.50;0.10;;;8.90;99.90;;;;;;5056442;28;20998;-73
2023/12/27 07:15:10;;;;;;;0.50;0.10;;;8.90;99.90;;;;;;5052212;28;20532;-74
2023/12/27 07:17:38;;;;;;;0.60;0.57;;;9.00;99.90;;;;;;5054578;28;20874;-73
2023/12/27 07:20:09;;;;;;;0.50;0.10;;;9.00;99.90;;;;;;5055244;28;20502;-72
2023/12/27 07:22:37;;;;;;;0.50;0.10;;;9.00;99.90;;;;;;5055642;28;20435;-73
2023/12/27 07:25:05;;;;;;;0.50;0.10;;;9.00;99.90;;;;;;5055498;28;20467;-73
2023/12/27 07:27:33;;;;;;;0.50;0.10;;;9.00;99.90;;;;;;5055414;28;20556;-73
2023/12/27 07:30:01;;;;;;;0.50;0.10;;;9.00;99.90;;;;;;5053227;28;20468;-72
2023/12/27 07:32:29;;;;;;;0.50;0.10;;;9.10;99.90;;;;;;5043375;28;20447;-72
2023/12/27 07:34:58;;;;;;;0.50;0.10;;;9.10;99.90;;;;;;5054505;28;20489;-73
2023/12/27 07:37:28;;;;;;;0.50;0.10;;;9.10;99.90;;;;;;5043497;28;20467;-74
2023/12/27 07:39:55;;;;;;;0.50;0.10;;;9.10;99.90;;;;;;5057503;28;20456;-73
2023/12/27 07:42:24;;;;;;;0.50;0.13;;;9.10;99.90;;;;;;5056902;28;20443;-72
2023/12/27 07:44:52;;;;;;;0.50;0.10;;;9.10;99.90;;;;;;5052725;28;20450;-71
2023/12/27 07:47:22;;;;;;;0.50;0.10;;;9.10;99.90;;;;;;5051256;28;20562;-71
2023/12/27 07:49:49;;;;;;;0.50;0.10;;;9.10;99.90;;;;;;5054382;28;20446;-71
2023/12/27 07:52:18;;;;;;;0.50;0.10;;;9.10;99.90;;;;;;5052785;28;20482;-72
2023/12/27 07:54:47;;;;;;;0.50;0.10;;;9.10;99.90;;;;;;5052643;28;20571;-73
2023/12/27 07:57:15;;;;;;;0.50;0.10;;;9.10;99.90;;;;;;5054573;28;20530;-72
2023/12/27 07:59:43;;;;;;;0.50;0.10;;;9.10;99.90;;;;;;5056169;28;20834;-72
2023/12/27 08:02:11;;;;;;;0.50;0.10;;;9.10;99.90;;;;;;5056335;28;20878;-73
2023/12/27 08:04:39;;;;;;;0.50;0.10;;;9.10;99.90;;;;;;5054814;28;20435;-71
2023/12/27 08:07:07;;;;;;;0.50;0.10;;;9.10;99.90;;;;;;5054168;28;20492;-71
2023/12/27 08:09:36;;;;;;;0.50;0.10;;;9.10;99.90;;;;;;5053717;28;20450;-72
2023/12/27 08:12:06;;;;;;;0.50;0.10;;;9.20;99.90;;;;;;5044608;28;20517;-72
2023/12/27 08:14:34;;;;;;;0.50;0.10;;;9.20;99.90;;;;;;5055040;28;20447;-71
2023/12/27 08:17:02;;;;;;;0.50;0.20;;;9.20;99.90;;;;;;5063547;28;20572;-71
2023/12/27 08:19:30;;;;;;;0.50;0.10;;;9.20;99.90;;;;;;5060998;28;20469;-71
2023/12/27 08:21:57;;;;;;;0.50;0.10;;;9.20;99.90;;;;;;5050685;28;20976;-71
2023/12/27 08:24:25;;;;;;;0.50;0.10;;;9.10;99.90;;;;;;5052289;28;20442;-73
2023/12/27 08:26:53;;;;;;;0.50;0.10;;;9.10;99.90;;;;;;5048262;28;20561;-72
2023/12/27 08:29:22;;;;;;;0.50;0.10;;;9.10;99.90;;;;;;5052482;28;20538;-73
2023/12/27 08:31:50;;;;;;;0.50;0.10;;;9.10;99.90;;;;;;5051537;28;20542;-72
2023/12/27 08:34:18;;;;;;;0.50;0.10;;;9.10;99.90;;;;;;5049911;28;20455;-72
2023/12/27 08:36:48;;;;;;;0.50;0.10;;;9.10;99.90;;;;;;5054126;28;21038;-72
2023/12/27 08:39:16;;;;;;;0.50;0.10;;;9.20;99.90;;;;;;5053369;28;20504;-72
2023/12/27 08:41:44;;;;;;;0.50;0.10;;;9.20;99.90;;;;;;5052345;28;20484;-72
2023/12/27 08:44:12;;;;;;;0.50;0.10;;;9.20;99.90;;;;;;5052583;28;20436;-72
2023/12/27 08:46:41;;;;;;;0.50;0.10;;;9.20;99.90;;;;;;5048664;28;20501;-73
2023/12/27 08:49:09;;;;;;;0.50;0.10;;;9.20;99.90;;;;;;5049153;28;20439;-72
2023/12/27 08:51:38;;;;;;;0.50;0.10;;;9.20;99.90;;;;;;5050062;28;21092;-73
2023/12/27 08:54:06;;;;;;;0.50;0.10;;;9.20;99.90;;;;;;5052216;28;20493;-72
2023/12/27 08:56:34;;;;;;;0.50;0.10;;;9.30;99.90;;;;;;5052016;28;20480;-72
2023/12/27 08:59:02;;;;;;;0.50;0.10;;;9.30;99.90;;;;;;5054342;28;20457;-73
2023/12/27 09:01:31;;;;;;;0.50;0.10;;;;;;;;;;5057920;28;20977;-73
2023/12/27 09:04:01;;;;;;;0.50;0.10;;;9.30;99.90;;;;;;5052290;28;20963;-72
2023/12/27 09:06:29;;;;;;;0.50;0.10;;;9.40;99.90;;;;;;5052475;28;20989;-72
2023/12/27 09:08:57;;;;;;;0.50;0.10;;;9.50;99.90;;;;;;5052554;28;20976;-72
2023/12/27 09:11:25;;;;;;;0.50;0.10;;;9.40;99.90;;;;;;5056215;28;20521;-72
2023/12/27 09:14:10;;;;;;;0.50;0.10;;;9.50;99.90;;;;;;5047373;28;20464;-72
2023/12/27 09:16:38;;;;;;;0.50;0.10;;;9.50;99.90;;;;;;5063050;28;20522;-73
2023/12/27 09:19:07;;;;;;;0.50;0.10;;;9.60;99.90;;;;;;5053378;28;20447;-74
2023/12/27 09:21:42;;;;;;;0.50;0.10;;;9.60;99.90;;;;;;5065502;28;20524;-74
2023/12/27 09:24:10;;;;;;;0.50;0.10;;;9.70;99.90;;;;;;5053722;28;20449;-73
2023/12/27 09:26:38;;;;;;;0.50;0.10;;;9.70;99.90;;;;;;5060678;28;20846;-73
2023/12/27 09:29:09;;;;;;;0.50;0.10;;;9.70;99.90;;;;;;5056198;28;20509;-75
2023/12/27 09:31:37;;;;;;;0.50;0.10;;;9.70;99.90;;;;;;5065060;28;20512;-75
2023/12/27 09:34:06;;;;;;;0.50;0.10;;;9.80;99.90;;;;;;5051423;28;20523;-75
2023/12/27 09:36:35;;;;;;;0.50;0.10;;;;;;;;;;5068549;28;20573;-76
2023/12/27 09:39:03;;;;;;;0.50;0.10;;;9.90;99.90;;;;;;5057505;28;20462;-74
2023/12/27 09:41:31;;;;;;;0.50;0.33;;;10.00;99.90;;;;;;5051339;28;20451;-74
2023/12/27 09:44:00;;;;;;;0.50;0.10;;;10.10;99.90;;;;;;5045102;28;20465;-74
2023/12/27 09:46:30;;;;;;;0.50;0.10;;;10.20;99.90;;;;;;5049001;28;20459;-74
2023/12/27 09:48:58;;;;;;;0.50;0.10;;;10.30;99.90;;;;;;5054657;28;20439;-73
2023/12/27 09:51:30;;;;;;;0.50;0.27;;;10.50;99.90;;;;;;5072249;28;20537;-74
2023/12/27 09:53:58;;;;;;;0.50;0.10;;;10.50;99.90;;;;;;5073361;28;20479;-74
2023/12/27 09:56:28;;;;;;;0.50;0.10;;;10.50;99.90;;;;;;5059428;28;20595;-75
2023/12/27 09:58:58;;;;;;;0.50;0.20;;;;;;;;;;5070758;28;20470;-74
2023/12/27 10:01:27;;;;;;;0.50;0.10;;;;;;;;;;5067915;28;20439;-77
2023/12/27 10:03:59;;;;;;;0.50;0.10;;;10.70;99.90;;;;;;5063141;28;20440;-74
2023/12/27 10:06:36;;;;;;;0.50;0.10;;;10.70;99.90;;;;;;5072725;28;20493;-74
2023/12/27 10:09:06;;;;;;;0.50;0.10;;;10.70;99.90;;;;;;5068313;28;20495;-74
2023/12/27 10:11:35;;;;;;;0.50;0.10;;;10.60;99.90;;;;;;5046958;28;20466;-75
2023/12/27 10:14:04;;;;;;;0.50;0.10;;;;;;;;;;5048643;28;20468;-78
2023/12/27 10:16:32;;;;;;;0.50;0.10;;;10.60;99.90;;;;;;5053242;28;21040;-75
2023/12/27 10:19:00;;;;;;;0.50;0.10;;;10.60;99.90;;;;;;5052824;28;20444;-74
2023/12/27 10:21:41;;;;;;;0.50;0.10;;;10.60;99.90;;;;;;5053348;28;20447;-73
2023/12/27 10:24:10;;;;;;;0.50;0.10;;;10.70;99.90;;;;;;5073796;28;20440;-75
2023/12/27 10:26:38;;;;;;;0.50;0.10;;;10.70;99.90;;;;;;5053944;28;20969;-77
2023/12/27 10:29:09;;;;;;;0.50;0.10;;;10.70;99.90;;;;;;5059805;28;20463;-76
2023/12/27 10:31:37;;;;;;;0.50;0.10;;;10.80;99.90;;;;;;5055366;28;20464;-76
2023/12/27 10:34:07;;;;;;;0.50;0.10;;;10.80;99.90;;;;;;5075161;28;20451;-76
2023/12/27 10:36:39;;;;;;;0.50;0.10;;;10.80;99.90;;;;;;5058967;28;20876;-74
2023/12/27 10:39:08;;;;;;;0.50;0.10;;;10.80;99.90;;;;;;5057497;28;20488;-74
2023/12/27 10:41:38;;;;;;;0.50;0.10;;;10.80;99.90;;;;;;5055087;28;20510;-77
2023/12/27 10:44:07;;;;;;;0.50;0.10;;;10.70;99.90;;;;;;5076807;28;20487;-75
2023/12/27 10:46:36;;;;;;;0.50;0.10;;;10.80;99.90;;;;;;5063782;28;20573;-76
2023/12/27 10:49:05;;;;;;;0.50;0.10;;;10.80;99.90;;;;;;5060357;28;20473;-76
2023/12/27 10:51:38;;;;;;;0.50;0.10;;;10.80;99.90;;;;;;5060510;28;20777;-78
2023/12/27 10:54:09;;;;;;;0.50;0.10;;;10.80;99.90;;;;;;5061734;28;20444;-76
2023/12/27 10:56:38;;;;;;;0.50;0.10;;;10.70;99.90;;;;;;5067913;28;20563;-74
2023/12/27 10:59:06;;;;;;;0.50;0.10;;;10.70;99.90;;;;;;5077713;28;20449;-76
2023/12/27 11:01:35;;;;;;;0.50;0.10;;;10.60;99.90;;;;;;5065957;28;20445;-76
2023/12/27 11:04:07;;;;;;;0.50;0.10;;;10.70;99.90;;;;;;5065256;28;20494;-75
2023/12/27 11:06:37;;;;;;;0.50;0.10;;;10.80;99.90;;;;;;5060781;28;20480;-75
2023/12/27 11:09:07;;;;;;;0.50;0.10;;;10.80;99.90;;;;;;5061159;28;20452;-76
2023/12/27 11:11:38;;;;;;;0.50;0.10;;;10.90;99.90;;;;;;5054335;28;20460;-74
2023/12/27 11:14:08;;;;;;;0.50;0.10;;;10.80;99.90;;;;;;5055964;28;20461;-74
2023/12/27 11:16:39;;;;;;;0.50;0.10;;;10.90;99.90;;;;;;5048550;28;20482;-74
2023/12/27 11:19:09;;;;;;;0.50;0.10;;;10.90;99.90;;;;;;5048621;28;20514;-75
2023/12/27 11:21:40;;;;;;;0.50;0.10;;;11.00;99.90;;;;;;5056729;28;20476;-74
2023/12/27 11:24:08;;;;;;;0.50;0.10;;;11.00;99.90;;;;;;5062412;28;20448;-75
2023/12/27 11:26:38;;;;;;;0.50;0.10;;;11.90;99.90;;;;;;5056481;28;20494;-75
2023/12/27 11:29:08;;;;;;;0.50;0.10;;;11.00;99.90;;;;;;5064386;28;20935;-74
2023/12/27 11:31:38;;;;;;;0.50;0.10;;;11.10;99.90;;;;;;5076190;28;20443;-74
2023/12/27 11:34:07;;;;;;;0.50;0.10;;;11.10;99.90;;;;;;5049677;28;20973;-75
2023/12/27 11:36:35;;;;;;;0.50;0.10;;;11.00;99.90;;;;;;5050621;28;20487;-75
2023/12/27 11:39:16;;;;;;;0.50;0.10;;;11.00;99.90;;;;;;5055037;28;20448;-75
2023/12/27 11:41:46;;;;;;;0.50;0.10;;;;;;;;;;5049819;28;20468;-74
2023/12/27 11:44:17;;;;;;;0.50;0.10;;;11.10;99.90;;;;;;5052496;28;20460;-73
2023/12/27 11:46:45;;;;;;;0.50;0.10;;;;;;;;;;5056244;28;20545;-75
2023/12/27 11:49:19;;;;;;;0.50;0.10;;;11.00;99.90;;;;;;5047878;28;20533;-76
2023/12/27 11:51:47;;;;;;;0.50;0.10;;;11.00;99.90;;;;;;5043629;28;20462;-76
2023/12/27 11:54:23;;;;;;;0.50;0.10;;;;;;;;;;5049577;28;20470;-75
2023/12/27 11:56:54;;;;;;;0.50;0.10;;;11.00;99.90;;;;;;5053316;28;20535;-76
2023/12/27 11:59:23;;;;;;;0.50;0.10;;;11.00;99.90;;;;;;5060298;28;20522;-73
2023/12/27 12:01:52;;;;;;;0.50;0.10;;;11.00;99.90;;;;;;5052351;28;20519;-75
2023/12/27 12:04:44;;;;;;;0.50;0.10;;;11.00;99.90;;;;;;5045427;28;20470;-75
2023/12/27 12:07:40;;;;;;;0.50;0.10;;;11.10;99.90;;;;;;5045327;28;20461;-74
2023/12/27 12:10:25;;;;;;;0.50;0.10;;;11.20;99.90;;;;;;5046873;28;20877;-75
2023/12/27 12:12:57;;;;;;;0.50;0.10;;;11.30;99.90;;;;;;5047995;28;20962;-75
2023/12/27 12:15:29;;;;;;;0.50;0.10;;;11.30;99.90;;;;;;5060175;28;20463;-76
2023/12/27 12:17:58;;;;;;;0.50;0.10;;;11.40;99.90;;;;;;5045103;28;20841;-74
2023/12/27 12:20:27;;;;;;;0.50;0.10;;;11.40;99.90;;;;;;5048981;28;20450;-74
2023/12/27 12:22:56;;;;;;;0.50;0.10;;;11.40;99.90;;;;;;5046508;28;20522;-74
2023/12/27 12:25:25;;;;;;;0.50;0.10;;;11.50;99.90;;;;;;5046659;28;20513;-76
2023/12/27 12:27:55;;;;;;;0.70;0.60;;;11.50;99.90;;;;;;5042082;28;20552;-75
2023/12/27 12:30:24;;;;;;;0.50;0.10;;;11.60;99.90;;;;;;5061564;28;20986;-77
2023/12/27 12:32:52;;;;;;;0.50;0.10;;;11.70;99.90;;;;;;5055441;28;20449;-75
2023/12/27 12:35:20;;;;;;;0.50;0.10;;;11.70;99.90;;;;;;5049084;28;20497;-75
2023/12/27 12:37:48;;;;;;;0.50;0.10;;;11.80;99.90;;;;;;5050910;28;20541;-75
2023/12/27 12:40:17;;;;;;;0.50;0.10;;;11.80;99.90;;;;;;5051115;28;20466;-74
2023/12/27 12:42:45;;;;;;;0.50;0.10;;;11.80;99.90;;;;;;5044324;28;20465;-76
2023/12/27 12:45:15;;;;;;;0.50;0.10;;;11.80;99.90;;;;;;5055674;28;20986;-75
2023/12/27 12:47:43;;;;;;;0.50;0.10;;;11.80;99.90;;;;;;5050327;28;20864;-75
2023/12/27 12:50:12;;;;;;;0.50;0.20;;;11.80;99.90;;;;;;5046113;28;20999;-75
2023/12/27 12:52:41;;;;;;;1.23;0.30;;;11.60;99.90;;;;;;5054273;28;20446;-73
2023/12/27 12:55:09;;;;;;;0.50;0.10;;;11.60;99.90;;;;;;5054165;28;20452;-75
2023/12/27 12:57:38;;;;;;;0.50;0.10;;;11.50;99.90;;;;;;5044569;28;20490;-74
2023/12/27 13:00:07;;;;;;;0.50;0.10;;;11.50;99.90;;;;;;5069640;28;20450;-74
2023/12/27 13:02:38;;;;;;;0.50;0.10;;;11.40;99.90;;;;;;5073651;28;20978;-73
2023/12/27 13:05:11;;;;;;;0.73;0.40;;;11.40;99.90;;;;;;5051219;28;20461;-74
2023/12/27 13:07:39;;;;;;;0.50;0.10;;;11.20;99.90;;;;;;5049812;28;20469;-74